Time;durP1;ratioP1;P1;durP2;ratioP2;P2;SDS_P1;SDS_P2;PMS_P1;PMS_P2;Temp;Humidity;BMP_temperature;BMP_pressure;BME280_temperature;BME280_humidity;BME280_pressure;Samples;Min_cycle;Max_cycle;Signal;HPM_P1;HPM_P2
2023/08/15 00:00:02;;;;;;;10.47;2.40;;;;;;;23.38;50.14;97831.19;10326709;28;20118;-74
2023/08/15 00:05:52;;;;;;;3.83;1.80;;;;;;;23.34;50.32;97842.47;10340112;28;20054;-73
2023/08/15 00:11:12;;;;;;;3.90;2.35;;;;;;;23.23;50.97;97838.00;10341030;28;20082;-73
2023/08/15 00:16:33;;;;;;;4.72;2.30;;;;;;;23.08;51.28;97839.84;10339555;28;20114;-73
2023/08/15 00:21:54;;;;;;;2.83;1.88;;;;;;;22.98;51.72;97836.81;10340631;28;20536;-73
2023/08/15 00:27:15;;;;;;;6.47;2.58;;;;;;;22.88;52.07;97834.47;10325636;28;20125;-74
2023/08/15 00:32:36;;;;;;;5.78;2.40;;;;;;;22.78;52.53;97831.41;10339190;28;20481;-73
2023/08/15 00:37:56;;;;;;;9.55;2.38;;;;;;;22.67;52.80;97827.59;10339689;28;20052;-74
2023/08/15 00:43:18;;;;;;;6.88;2.60;;;;;;;22.57;53.38;97819.56;10325028;28;20057;-73
2023/08/15 00:48:40;;;;;;;4.82;2.00;;;;;;;22.56;53.40;97834.47;10325207;28;20121;-74
2023/08/15 00:54:01;;;;;;;3.30;2.30;;;;;;;22.54;53.26;97848.66;10324684;28;20073;-74
2023/08/15 00:59:21;;;;;;;4.13;2.03;;;;;;;22.55;53.43;97845.13;10337059;28;20122;-74
2023/08/15 01:04:42;;;;;;;6.25;2.42;;;;;;;22.57;53.52;97852.97;10310683;28;20133;-74
2023/08/15 01:10:03;;;;;;;4.03;2.17;;;;;;;22.53;53.58;97847.94;10324248;28;20506;-73
2023/08/15 01:15:26;;;;;;;5.38;1.95;;;;;;;22.42;53.60;97846.28;10337311;28;20058;-74
2023/08/15 01:20:49;;;;;;;3.70;2.30;;;;;;;22.30;54.11;97848.84;10311134;28;20180;-73
2023/08/15 01:26:10;;;;;;;5.25;2.08;;;;;;;22.15;54.48;97841.38;10323736;28;20472;-73
2023/08/15 01:31:44;;;;;;;3.35;2.25;;;;;;;22.01;55.18;97844.59;10309868;28;20073;-73
2023/08/15 01:37:09;;;;;;;7.43;2.17;;;;;;;21.92;55.14;97840.81;10323153;28;20080;-73
2023/08/15 01:42:30;;;;;;;3.90;2.30;;;;;;;21.89;55.09;97832.91;10309549;28;20117;-73
2023/08/15 01:47:51;;;;;;;2.30;2.05;;;;;;;21.83;55.55;97838.44;10322717;28;20461;-74
2023/08/15 01:53:12;;;;;;;5.72;2.15;;;;;;;21.77;55.87;97833.34;10309321;28;20122;-73
2023/08/15 01:58:33;;;;;;;3.95;2.13;;;;;;;21.71;56.14;97833.16;10322211;28;20125;-73
2023/08/15 02:03:54;;;;;;;4.10;2.30;;;;;;;21.60;56.13;97837.16;10308361;28;20137;-74
2023/08/15 02:09:14;;;;;;;5.00;2.60;;;;;;;21.53;56.51;97846.94;10335413;28;20134;-74
2023/08/15 02:14:35;;;;;;;3.72;2.60;;;;;;;21.48;56.99;97842.53;10335301;28;20485;-73
2023/08/15 02:19:56;;;;;;;5.43;2.40;;;;;;;21.42;57.34;97843.81;10334850;28;20062;-73
2023/08/15 02:25:17;;;;;;;5.05;2.50;;;;;;;21.38;57.12;97848.66;10307734;28;20117;-73
2023/08/15 02:30:37;;;;;;;4.53;2.40;;;;;;;21.26;57.82;97837.72;10321216;28;20513;-73
2023/08/15 02:36:03;;;;;;;5.28;2.35;;;;;;;21.12;57.80;97834.44;10320791;28;20046;-73
2023/08/15 02:41:23;;;;;;;4.30;2.65;;;;;;;20.98;58.58;97829.09;10320564;28;20457;-73
2023/08/15 02:46:44;;;;;;;7.68;2.60;;;;;;;20.92;58.81;97845.94;10293617;28;20535;-73
2023/08/15 02:52:05;;;;;;;6.05;3.10;;;;;;;20.88;59.20;97843.00;10333907;28;20062;-74
2023/08/15 02:57:26;;;;;;;6.50;2.47;;;;;;;20.80;59.43;97829.31;10333570;28;20073;-73
2023/08/15 03:02:46;;;;;;;4.65;2.70;;;;;;;20.78;59.54;97837.03;10319734;28;20194;-74
2023/08/15 03:08:07;;;;;;;3.70;2.70;;;;;;;20.72;59.96;97831.91;10293171;28;20042;-74
2023/08/15 03:13:28;;;;;;;5.38;3.25;;;;;;;20.62;59.87;97820.28;10306387;28;20065;-73
2023/08/15 03:18:48;;;;;;;4.97;2.60;;;;;;;20.53;60.83;97822.13;10319708;28;20493;-74
2023/08/15 03:24:09;;;;;;;5.70;3.17;;;;;;;20.47;60.37;97832.59;10305279;28;20660;-73
2023/08/15 03:29:30;;;;;;;3.63;2.63;;;;;;;20.40;61.22;97825.97;10319386;28;20130;-74
2023/08/15 03:34:50;;;;;;;6.05;2.80;;;;;;;20.37;60.97;97821.66;10319142;28;20073;-74
2023/08/15 03:40:11;;;;;;;6.75;2.90;;;;;;;20.36;61.63;97828.69;10318992;28;20512;-74
2023/08/15 03:45:32;;;;;;;5.85;2.70;;;;;;;20.35;62.06;97829.34;10305510;28;20126;-73
2023/08/15 03:50:55;;;;;;;5.95;3.10;;;;;;;20.30;61.96;97831.34;10332325;28;20062;-73
2023/08/15 03:56:17;;;;;;;6.47;3.30;;;;;;;20.21;61.94;97836.03;10319347;28;20117;-73
2023/08/15 04:01:38;;;;;;;5.38;2.92;;;;;;;20.27;62.75;97839.06;10331916;28;20116;-73
2023/08/15 04:07:00;;;;;;;4.38;2.75;;;;;;;20.34;63.07;97831.44;10333106;28;20058;-73
2023/08/15 04:12:21;;;;;;;4.15;3.13;;;;;;;20.40;62.94;97828.09;10291673;28;20592;-73
2023/08/15 04:17:42;;;;;;;8.98;2.92;;;;;;;20.50;62.67;97831.25;10331801;28;20401;-74
2023/08/15 04:23:05;;;;;;;8.73;3.47;;;;;;;20.58;62.96;97837.19;10318781;28;20170;-73
2023/08/15 04:28:26;;;;;;;7.43;3.10;;;;;;;20.68;62.77;97834.63;10331738;28;20126;-73
2023/08/15 04:33:46;;;;;;;5.15;3.00;;;;;;;20.82;62.71;97840.72;10334615;28;20504;-74
2023/08/15 04:39:07;;;;;;;6.80;2.97;;;;;;;21.08;63.18;97837.19;10339795;28;20122;-73
2023/08/15 04:44:28;;;;;;;3.85;3.03;;;;;;;21.26;62.74;97840.53;10338725;28;20109;-73
2023/08/15 04:49:50;;;;;;;6.05;3.00;;;;;;;21.55;62.39;97849.81;10324967;28;20137;-73
2023/08/15 04:55:13;;;;;;;5.35;2.95;;;;;;;21.80;61.59;97851.88;10338305;28;20122;-73
2023/08/15 05:00:33;;;;;;;7.18;2.92;;;;;;;22.11;61.19;97864.03;10324709;28;20066;-73
2023/08/15 05:05:57;;;;;;;4.13;2.75;;;;;;;22.57;60.18;97876.47;10324400;28;20234;-73
2023/08/15 05:11:18;;;;;;;6.93;3.28;;;;;;;22.98;59.36;97891.63;10337969;28;20074;-73
2023/08/15 05:16:38;;;;;;;5.85;2.78;;;;;;;23.53;58.52;97892.69;10323952;28;20070;-73
2023/08/15 05:22:01;;;;;;;7.30;3.15;;;;;;;23.99;56.96;97887.13;10323972;28;20062;-74
2023/08/15 05:27:23;;;;;;;5.63;3.03;;;;;;;24.47;55.46;97900.03;10337138;28;20046;-74
2023/08/15 05:32:44;;;;;;;6.68;3.17;;;;;;;25.01;52.89;97905.06;10296766;28;20097;-73
2023/08/15 05:38:05;;;;;;;5.30;3.10;;;;;;;25.60;52.01;97900.09;10323186;28;20046;-74
2023/08/15 05:43:26;;;;;;;5.57;3.03;;;;;;;26.24;50.57;97902.84;10322893;28;20065;-74
2023/08/15 05:48:46;;;;;;;4.53;2.85;;;;;;;30.65;43.85;97900.50;10335779;28;20050;-73
2023/08/15 05:54:07;;;;;;;8.95;3.42;;;;;;;35.99;32.26;97893.94;10308838;28;20042;-74
2023/08/15 05:59:28;;;;;;;12.10;3.53;;;;;;;39.92;26.81;97901.00;10322102;28;20118;-73
2023/08/15 06:04:49;;;;;;;9.43;3.00;;;;;;;41.93;22.58;97910.38;10321550;28;20055;-74
2023/08/15 06:10:10;;;;;;;7.63;2.70;;;;;;;43.97;20.69;97911.25;10322027;28;20046;-77
2023/08/15 06:15:31;;;;;;;6.75;2.90;;;;;;;44.87;17.88;97904.59;10336048;28;20114;-76
2023/08/15 06:20:52;;;;;;;8.48;2.25;;;;;;;46.28;17.06;97918.88;10335026;28;20126;-76
2023/08/15 06:26:12;;;;;;;;;;;;;;;46.78;15.21;97920.94;10308182;28;20513;-76
2023/08/15 06:31:34;;;;;;;3.25;1.98;;;;;;;47.97;14.81;97924.19;10321007;28;19969;-76
2023/08/15 06:36:55;;;;;;;4.68;1.85;;;;;;;49.05;13.87;97918.09;10307277;28;20042;-78
2023/08/15 06:42:16;;;;;;;4.70;1.92;;;;;;;50.05;13.01;97927.78;10307048;28;20492;-77
2023/08/15 06:47:37;;;;;;;3.58;1.52;;;;;;;50.61;12.11;97936.03;10320360;28;20489;-77
2023/08/15 06:52:58;;;;;;;3.25;1.50;;;;;;;51.14;10.90;97927.41;10320250;28;20038;-78
2023/08/15 06:58:22;;;;;;;4.65;2.08;;;;;;;52.40;10.72;97921.00;10306278;28;20108;-78
2023/08/15 07:03:43;;;;;;;5.40;1.60;;;;;;;51.96;10.15;97926.84;10306722;28;20054;-78
2023/08/15 07:09:06;;;;;;;3.70;1.67;;;;;;;50.99;10.73;97924.38;10319883;28;20408;-78
2023/08/15 07:14:27;;;;;;;2.47;1.73;;;;;;;51.87;9.98;97913.69;10306363;28;20049;-78
2023/08/15 07:19:48;;;;;;;2.80;1.25;;;;;;;51.44;9.89;97908.91;10305845;28;20117;-78
2023/08/15 07:25:08;;;;;;;5.63;1.50;;;;;;;52.38;9.94;97914.56;10306006;28;20038;-78
2023/08/15 07:30:29;;;;;;;2.85;1.40;;;;;;;51.91;9.92;97905.03;10319789;28;20050;-78
2023/08/15 07:35:50;;;;;;;2.40;1.38;;;;;;;50.83;9.56;97899.88;10305791;28;20112;-78
2023/08/15 07:41:11;;;;;;;3.15;1.48;;;;;;;51.26;9.75;97910.69;10305774;28;20440;-78
2023/08/15 07:46:32;;;;;;;3.58;1.30;;;;;;;50.54;9.91;97911.44;10318840;28;20042;-77
2023/08/15 07:51:54;;;;;;;3.03;1.15;;;;;;;50.27;9.47;97913.16;10305278;28;20043;-77
2023/08/15 07:57:16;;;;;;;2.65;1.00;;;;;;;50.89;10.10;97917.81;10319055;28;20053;-77
2023/08/15 08:02:36;;;;;;;3.90;1.20;;;;;;;48.68;10.00;97918.25;10305119;28;20061;-78
2023/08/15 08:07:58;;;;;;;2.45;1.52;;;;;;;47.29;11.73;97913.34;10319337;28;20117;-78
2023/08/15 08:13:19;;;;;;;4.35;1.33;;;;;;;50.12;9.33;97904.91;10312664;28;20081;-78
2023/08/15 08:18:41;;;;;;;2.95;1.20;;;;;;;51.66;8.61;97912.69;10326002;28;20488;-79
2023/08/15 08:24:03;;;;;;;4.47;1.20;;;;;;;54.72;7.69;97913.72;10312613;28;20443;-79
2023/08/15 08:29:25;;;;;;;3.20;1.15;;;;;;;54.82;7.45;97918.56;10299614;28;20050;-79
2023/08/15 08:34:46;;;;;;;2.45;1.02;;;;;;;54.33;6.88;97923.91;10298586;28;20046;-78
2023/08/15 08:40:08;;;;;;;3.38;1.10;;;;;;;55.34;6.98;97929.19;10339049;28;20055;-78
2023/08/15 08:45:30;;;;;;;8.57;1.15;;;;;;;52.76;7.83;97925.56;10311854;28;20142;-78
2023/08/15 08:50:53;;;;;;;5.30;1.10;;;;;;;54.37;7.54;97925.78;10338475;28;20118;-78
2023/08/15 08:56:17;;;;;;;2.35;0.90;;;;;;;55.52;6.40;97932.41;10298041;28;20050;-78
2023/08/15 09:01:39;;;;;;;4.30;1.00;;;;;;;56.35;5.99;97925.72;10338695;28;20074;-77
2023/08/15 09:07:01;;;;;;;3.40;1.10;;;;;;;57.32;5.73;97925.31;10324541;28;20137;-79
2023/08/15 09:12:36;;;;;;;1.50;0.90;;;;;;;54.83;6.17;97917.66;10324088;28;20046;-79
2023/08/15 09:18:01;;;;;;;3.35;0.90;;;;;;;54.26;6.20;97920.25;10297498;28;20052;-79
2023/08/15 09:23:22;;;;;;;3.17;1.00;;;;;;;55.54;6.44;97896.94;10309267;28;20105;-79
2023/08/15 09:28:43;;;;;;;3.50;1.00;;;;;;;55.82;5.58;97895.28;10336960;28;20062;-79
2023/08/15 09:34:09;;;;;;;6.07;1.92;;;;;;;55.03;6.06;97893.09;10309886;28;20042;-79
2023/08/15 09:39:30;;;;;;;2.60;1.20;;;;;;;55.50;6.02;97873.50;10309866;28;20100;-79
2023/08/15 09:44:51;;;;;;;3.40;1.25;;;;;;;55.34;5.71;97878.34;10323080;28;20484;-79
2023/08/15 09:50:13;;;;;;;2.80;1.10;;;;;;;54.35;6.15;97866.97;10309241;28;20042;-79
2023/08/15 09:55:35;;;;;;;3.72;1.27;;;;;;;55.65;5.68;97866.56;10322624;28;20477;-79
2023/08/15 10:00:56;;;;;;;3.30;1.20;;;;;;;55.36;5.88;97866.84;10323041;28;20046;-78
2023/08/15 10:06:17;;;;;;;2.85;1.10;;;;;;;55.63;5.47;97861.50;10308277;28;20062;-78
2023/08/15 10:11:42;;;;;;;5.15;1.25;;;;;;;54.17;6.04;97860.03;10294968;28;20078;-77
2023/08/15 10:17:03;;;;;;;1.40;1.10;;;;;;;53.00;7.07;97859.06;10318338;28;20096;-79
2023/08/15 10:22:28;;;;;;;3.70;1.30;;;;;;;51.92;7.38;97843.25;10350753;28;20046;-78
2023/08/15 10:27:53;;;;;;;1.77;1.33;;;;;;;51.51;7.22;97847.28;10334830;28;20042;-77
2023/08/15 10:33:15;;;;;;;5.15;1.55;;;;;;;49.16;8.50;97850.47;10320743;28;20045;-79
2023/08/15 10:38:41;;;;;;;4.00;1.25;;;;;;;51.80;7.22;97828.00;10363457;28;20049;-79
2023/08/15 10:44:06;;;;;;;1.75;1.55;;;;;;;51.67;7.50;97830.78;10361061;28;20049;-78
2023/08/15 10:49:27;;;;;;;4.03;1.77;;;;;;;50.49;8.04;97827.31;10333889;28;20041;-78
2023/08/15 10:54:48;;;;;;;2.65;2.15;;;;;;;50.58;7.90;97833.88;10347049;28;20538;-78
2023/08/15 11:00:09;;;;;;;4.47;2.10;;;;;;;48.91;8.87;97830.44;10360302;28;20185;-77
2023/08/15 11:05:31;;;;;;;3.90;2.10;;;;;;;47.39;10.05;97820.94;10360183;28;20500;-77
2023/08/15 11:10:52;;;;;;;5.88;2.55;;;;;;;46.76;10.86;97808.91;10346244;28;20045;-77
2023/08/15 11:16:15;;;;;;;5.57;2.38;;;;;;;46.58;10.67;97804.44;10281781;28;20043;-77
2023/08/15 11:21:36;;;;;;;3.10;2.38;;;;;;;43.45;13.41;97794.91;10266165;28;20042;-76
2023/08/15 11:26:58;;;;;;;2.80;2.50;;;;;;;42.52;14.15;97792.59;10278964;28;20424;-78
2023/08/15 11:32:25;;;;;;;5.45;2.60;;;;;;;41.57;15.79;97801.78;10265818;28;20050;-78
2023/08/15 11:37:46;;;;;;;6.75;2.40;;;;;;;39.23;17.75;97805.69;10279217;28;20050;-77
2023/08/15 11:43:06;;;;;;;3.15;2.55;;;;;;;37.84;19.80;97792.81;10293511;28;20042;-77
2023/08/15 11:48:28;;;;;;;5.00;2.75;;;;;;;37.28;19.84;97790.63;10300314;28;20121;-77
2023/08/15 11:53:51;;;;;;;5.93;2.65;;;;;;;36.65;21.47;97782.03;10286671;28;20071;-77
2023/08/15 11:59:18;;;;;;;3.67;2.50;;;;;;;36.43;21.43;97786.47;10299805;28;20051;-75
2023/08/15 12:04:39;;;;;;;3.47;2.78;;;;;;;35.51;22.39;97794.56;10286582;28;20063;-78
2023/08/15 12:10:01;;;;;;;4.25;2.40;;;;;;;35.21;22.47;97787.50;10286270;28;20053;-75
2023/08/15 12:15:25;;;;;;;6.32;2.45;;;;;;;35.29;22.56;97770.53;10324997;28;20046;-78
2023/08/15 12:20:47;;;;;;;4.47;2.75;;;;;;;36.12;22.05;97764.25;10340612;28;20456;-78
2023/08/15 12:26:08;;;;;;;4.95;3.40;;;;;;;35.81;23.24;97766.75;10312388;28;20038;-77
2023/08/15 12:31:29;;;;;;;6.63;2.90;;;;;;;35.81;22.92;97749.34;10324370;28;20077;-76
2023/08/15 12:36:49;;;;;;;6.00;2.67;;;;;;;35.46;24.14;97759.16;10307818;28;20097;-76
2023/08/15 12:42:12;;;;;;;6.43;2.88;;;;;;;35.59;23.90;97747.88;10322414;28;20045;-77
2023/08/15 12:47:33;;;;;;;5.00;2.88;;;;;;;35.56;24.26;97750.13;10309796;28;20117;-76
2023/08/15 12:52:57;;;;;;;4.38;2.50;;;;;;;35.14;22.96;97743.47;10338435;28;20042;-77
2023/08/15 12:58:18;;;;;;;4.90;2.60;;;;;;;35.36;22.67;97739.16;10309948;28;20113;-76
2023/08/15 13:03:38;;;;;;;7.80;2.72;;;;;;;35.71;22.92;97735.88;10311158;28;20074;-77
2023/08/15 13:08:59;;;;;;;6.40;2.78;;;;;;;35.68;22.39;97736.69;10337823;28;20069;-77
2023/08/15 13:14:20;;;;;;;4.57;2.28;;;;;;;35.57;21.75;97724.72;10324079;28;20122;-77
2023/08/15 13:19:53;;;;;;;4.47;2.25;;;;;;;35.55;21.40;97716.78;10313397;28;20050;-77
2023/08/15 13:25:14;;;;;;;5.15;2.15;;;;;;;35.59;21.24;97723.94;10323857;28;20459;-77
2023/08/15 13:30:34;;;;;;;;;;;;;;;35.41;21.27;97711.44;10338263;28;20065;-77
2023/08/15 13:35:56;;;;;;;4.53;2.50;;;;;;;35.22;21.71;97701.88;10323375;28;20391;-77
2023/08/15 13:41:16;;;;;;;5.47;2.78;;;;;;;34.76;22.63;97690.25;10322967;28;20046;-77
2023/08/15 13:46:37;;;;;;;5.25;2.08;;;;;;;34.72;23.01;97691.06;10309499;28;20062;-77
2023/08/15 13:51:58;;;;;;;5.55;2.38;;;;;;;34.83;22.45;97674.06;10322719;28;20042;-77
2023/08/15 13:57:19;;;;;;;5.95;2.28;;;;;;;34.69;22.04;97662.91;10322459;28;20378;-77
2023/08/15 14:02:40;;;;;;;4.70;2.40;;;;;;;34.58;22.43;97661.81;10321868;28;20134;-77
2023/08/15 14:08:01;;;;;;;3.90;2.50;;;;;;;34.38;22.14;97660.91;10321514;28;20039;-77
2023/08/15 14:13:22;;;;;;;5.43;2.42;;;;;;;34.28;21.99;97652.50;10321949;28;20070;-76
2023/08/15 14:18:43;;;;;;;5.57;2.33;;;;;;;34.17;21.95;97647.75;10335052;28;20093;-76
2023/08/15 14:24:04;;;;;;;3.72;2.40;;;;;;;34.13;22.55;97648.56;10334835;28;20077;-77
2023/08/15 14:29:25;;;;;;;4.28;2.47;;;;;;;34.11;23.01;97648.63;10321424;28;20082;-76
2023/08/15 14:34:48;;;;;;;3.10;2.50;;;;;;;34.00;22.90;97635.91;10334616;28;20104;-76
2023/08/15 14:40:09;;;;;;;3.65;2.42;;;;;;;33.78;23.08;97634.28;10321562;28;20074;-76
2023/08/15 14:45:30;;;;;;;5.35;2.13;;;;;;;33.70;23.04;97629.47;10307066;28;20065;-76
2023/08/15 14:50:51;;;;;;;2.78;2.50;;;;;;;33.68;23.09;97625.88;10333778;28;20448;-77
2023/08/15 14:56:14;;;;;;;3.60;2.60;;;;;;;33.52;23.25;97630.66;10320149;28;20121;-76
2023/08/15 15:01:37;;;;;;;4.03;2.80;;;;;;;33.16;23.99;97623.56;10294074;28;20082;-77
2023/08/15 15:06:58;;;;;;;5.60;2.50;;;;;;;33.11;23.92;97622.25;10319674;28;20046;-76
2023/08/15 15:12:19;;;;;;;4.03;2.10;;;;;;;33.16;24.27;97623.56;10333144;28;20074;-76
2023/08/15 15:17:40;;;;;;;5.60;2.53;;;;;;;32.96;24.23;97624.06;10318937;28;20356;-76
2023/08/15 15:23:01;;;;;;;7.15;2.70;;;;;;;32.87;24.27;97632.22;10319462;28;20070;-76
2023/08/15 15:28:22;;;;;;;6.68;2.40;;;;;;;32.56;24.39;97648.78;10305881;28;20042;-75
2023/08/15 15:33:43;;;;;;;3.78;2.47;;;;;;;32.40;24.86;97655.59;10305665;28;20050;-76
2023/08/15 15:39:04;;;;;;;4.30;2.65;;;;;;;32.41;24.48;97657.75;10319235;28;20400;-76
2023/08/15 15:44:26;;;;;;;5.63;2.40;;;;;;;32.49;25.09;97679.97;10319037;28;20381;-76
2023/08/15 15:49:49;;;;;;;4.75;2.42;;;;;;;32.49;25.18;97694.41;10318961;28;20050;-76
2023/08/15 15:55:10;;;;;;;7.13;2.42;;;;;;;32.65;25.25;97702.75;10332331;28;20539;-76
2023/08/15 16:00:31;;;;;;;4.13;2.53;;;;;;;32.70;24.62;97721.41;10333202;28;20373;-76
2023/08/15 16:05:52;;;;;;;7.10;2.55;;;;;;;32.54;25.46;97726.84;10318218;28;20093;-76
2023/08/15 16:11:13;;;;;;;5.00;2.42;;;;;;;32.34;25.02;97725.06;10304944;28;20078;-76
2023/08/15 16:16:34;;;;;;;2.83;2.28;;;;;;;32.09;25.67;97734.16;10345875;28;20043;-76
2023/08/15 16:21:55;;;;;;;4.77;2.43;;;;;;;31.88;25.92;97727.31;10305221;28;20125;-76
2023/08/15 16:27:15;;;;;;;7.73;2.40;;;;;;;31.72;26.52;97744.88;10304782;28;20068;-76
2023/08/15 16:32:36;;;;;;;7.03;2.50;;;;;;;31.55;26.60;97747.31;10324325;28;20066;-76
2023/08/15 16:37:57;;;;;;;5.40;2.43;;;;;;;31.51;27.15;97739.44;10325609;28;20049;-76
2023/08/15 16:43:20;;;;;;;6.40;2.73;;;;;;;31.43;27.16;97742.44;10339066;28;20042;-76
2023/08/15 16:48:41;;;;;;;6.13;2.55;;;;;;;31.35;27.41;97757.00;10312057;28;20543;-74
2023/08/15 16:54:02;;;;;;;7.77;2.53;;;;;;;31.27;27.62;97762.91;10325046;28;20046;-76
2023/08/15 16:59:22;;;;;;;3.80;2.93;;;;;;;31.25;27.76;97768.66;10324903;28;20548;-73
2023/08/15 17:04:44;;;;;;;5.13;3.10;;;;;;;31.16;28.10;97776.69;10337951;28;20074;-76
2023/08/15 17:10:05;;;;;;;5.50;2.72;;;;;;;31.02;28.64;97774.72;10338984;28;20038;-76
2023/08/15 17:15:26;;;;;;;5.00;3.20;;;;;;;30.89;28.82;97793.66;10310703;28;20397;-76
2023/08/15 17:20:47;;;;;;;5.35;3.10;;;;;;;30.74;28.86;97778.69;10323981;28;20047;-76
2023/08/15 17:26:09;;;;;;;5.60;2.72;;;;;;;30.56;29.29;97781.03;10323692;28;20050;-75
2023/08/15 17:31:30;;;;;;;5.05;2.97;;;;;;;30.45;29.42;97795.56;10337152;28;20477;-74
2023/08/15 17:36:52;;;;;;;9.73;2.88;;;;;;;30.32;29.54;97791.38;10337154;28;20038;-80
2023/08/15 17:42:14;;;;;;;6.83;3.43;;;;;;;30.18;29.83;97795.09;10322188;28;20050;-75
2023/08/15 17:47:37;;;;;;;5.70;2.47;;;;;;;30.06;30.33;97806.00;10336553;28;20049;-78
2023/08/15 17:52:58;;;;;;;4.85;2.65;;;;;;;29.89;30.42;97814.75;10336083;28;20053;-72
2023/08/15 17:58:19;;;;;;;5.72;2.40;;;;;;;29.68;31.11;97816.38;10335894;28;20042;-73
2023/08/15 18:03:39;;;;;;;6.97;2.83;;;;;;;29.36;31.87;97823.75;10336321;28;20066;-74
2023/08/15 18:09:01;;;;;;;10.00;2.92;;;;;;;29.00;33.59;97824.63;10321881;28;20443;-73
2023/08/15 18:14:21;;;;;;;8.53;3.00;;;;;;;28.66;34.66;97816.13;10308462;28;20149;-73
2023/08/15 18:19:43;;;;;;;12.07;2.70;;;;;;;28.38;35.93;97837.72;10335206;28;20422;-73
2023/08/15 18:25:04;;;;;;;7.30;2.33;;;;;;;28.10;36.56;97834.88;10321681;28;20395;-71
2023/08/15 18:30:28;;;;;;;10.93;2.50;;;;;;;27.88;37.42;97832.69;10307572;28;20053;-70
2023/08/15 18:35:52;;;;;;;8.02;2.10;;;;;;;27.72;37.63;97829.84;10308569;28;20043;-73
2023/08/15 18:41:13;;;;;;;6.57;2.10;;;;;;;27.53;37.90;97829.06;10320890;28;20057;-74
2023/08/15 18:46:36;;;;;;;5.13;1.80;;;;;;;27.39;38.42;97829.75;10320658;28;20047;-78
2023/08/15 18:51:57;;;;;;;10.63;1.75;;;;;;;27.23;38.49;97838.31;10306935;28;20070;-79
2023/08/15 18:57:18;;;;;;;5.72;1.73;;;;;;;27.06;38.64;97841.13;10320297;28;20042;-74
2023/08/15 19:02:39;;;;;;;4.80;1.10;;;;;;;26.89;39.21;97848.16;10319742;28;20050;-73
2023/08/15 19:08:00;;;;;;;5.13;1.17;;;;;;;26.74;39.23;97850.25;10319830;28;20043;-73
2023/08/15 19:13:21;;;;;;;2.15;1.10;;;;;;;26.57;39.21;97857.31;10334376;28;20046;-73
2023/08/15 19:18:42;;;;;;;3.75;0.95;;;;;;;26.45;39.54;97842.94;10334137;28;20054;-73
2023/08/15 19:24:03;;;;;;;3.92;1.00;;;;;;;26.29;39.83;97848.53;10319623;28;20062;-73
2023/08/15 19:29:24;;;;;;;5.70;0.85;;;;;;;26.19;40.24;97847.03;10319479;28;20073;-73
2023/08/15 19:34:46;;;;;;;4.83;1.20;;;;;;;26.09;40.15;97849.81;10319451;28;20448;-73
2023/08/15 19:40:08;;;;;;;3.97;1.38;;;;;;;26.01;40.17;97843.31;10319305;28;20103;-73
2023/08/15 19:45:30;;;;;;;6.78;1.00;;;;;;;25.90;40.74;97851.81;10319300;28;20053;-74
2023/08/15 19:50:51;;;;;;;3.45;0.98;;;;;;;25.85;40.37;97847.44;10333744;28;20051;-77
2023/08/15 19:56:12;;;;;;;4.53;1.10;;;;;;;25.79;41.01;97841.69;10291119;28;20047;-76
2023/08/15 20:01:33;;;;;;;3.97;1.25;;;;;;;25.77;40.81;97847.41;10318790;28;20058;-77
2023/08/15 20:06:54;;;;;;;4.90;1.55;;;;;;;25.70;40.98;97857.34;10339060;28;20038;-81
2023/08/15 20:12:16;;;;;;;2.45;1.13;;;;;;;25.55;41.42;97853.56;10300065;28;20046;-68
2023/08/15 20:17:37;;;;;;;6.03;1.00;;;;;;;25.48;41.54;97860.66;10341163;28;20108;-70
2023/08/15 20:22:58;;;;;;;3.28;1.05;;;;;;;25.46;41.51;97854.19;10340690;28;20042;-70
2023/08/15 20:28:19;;;;;;;4.75;1.00;;;;;;;25.45;41.51;97861.34;10326050;28;20097;-70
2023/08/15 20:33:40;;;;;;;4.57;1.00;;;;;;;25.36;41.98;97866.94;10340316;28;20043;-70
2023/08/15 20:39:02;;;;;;;2.40;1.10;;;;;;;25.30;42.17;97863.31;10340091;28;20038;-69
2023/08/15 20:44:24;;;;;;;2.80;1.08;;;;;;;25.25;42.48;97862.53;10339191;28;20042;-70
2023/08/15 20:49:45;;;;;;;4.32;1.17;;;;;;;25.20;42.63;97866.06;10338775;28;20061;-70
2023/08/15 20:55:11;;;;;;;3.80;1.00;;;;;;;25.16;42.85;97848.88;10325060;28;20385;-71
2023/08/15 21:00:31;;;;;;;4.30;1.08;;;;;;;25.07;43.18;97860.19;10325146;28;20076;-71
2023/08/15 21:05:54;;;;;;;5.03;1.13;;;;;;;24.96;43.62;97857.88;10337969;28;20061;-70
2023/08/15 21:11:15;;;;;;;6.28;1.35;;;;;;;24.88;43.83;97860.63;10310921;28;20076;-70
2023/08/15 21:16:36;;;;;;;5.43;1.88;;;;;;;24.84;43.74;97862.03;10348930;28;20046;-70
2023/08/15 21:21:57;;;;;;;5.53;1.35;;;;;;;24.79;44.36;97854.09;10364601;28;20068;-70
2023/08/15 21:27:18;;;;;;;4.35;1.23;;;;;;;24.68;44.62;97861.09;10377857;28;20049;-70
2023/08/15 21:32:39;;;;;;;7.60;1.60;;;;;;;24.55;44.86;97860.22;10377829;28;20069;-70
2023/08/15 21:38:00;;;;;;;5.35;1.40;;;;;;;24.40;45.35;97859.25;10377486;28;20042;-70
2023/08/15 21:43:21;;;;;;;4.20;1.77;;;;;;;24.28;45.45;97868.34;10377336;28;20123;-70
2023/08/15 21:48:42;;;;;;;4.45;1.30;;;;;;;24.17;45.45;97866.75;10377917;28;20117;-70
2023/08/15 21:54:03;;;;;;;4.20;1.30;;;;;;;24.10;46.18;97870.91;10377081;28;20066;-70
2023/08/15 21:59:23;;;;;;;2.83;1.17;;;;;;;24.06;46.16;97872.97;10377756;28;20464;-70
2023/08/15 22:04:45;;;;;;;3.92;1.25;;;;;;;24.02;46.32;97882.16;10376302;28;20473;-69
2023/08/15 22:10:06;;;;;;;1.98;1.25;;;;;;;23.97;46.43;97889.94;10376470;28;20069;-70
2023/08/15 22:15:27;;;;;;;3.20;1.30;;;;;;;23.89;46.80;97897.63;10362362;28;20046;-70
2023/08/15 22:20:48;;;;;;;2.38;1.15;;;;;;;23.80;47.42;97902.47;10348717;28;20121;-70
2023/08/15 22:26:11;;;;;;;4.35;1.63;;;;;;;23.72;47.33;97907.28;10376556;28;20076;-71
2023/08/15 22:31:32;;;;;;;4.85;1.80;;;;;;;23.66;47.66;97913.63;10375665;28;20126;-70
2023/08/15 22:36:53;;;;;;;4.85;1.52;;;;;;;23.63;47.72;97906.41;10376432;28;20456;-70
2023/08/15 22:42:14;;;;;;;2.60;1.33;;;;;;;23.56;48.03;97919.09;10375049;28;20121;-70
2023/08/15 22:47:35;;;;;;;3.13;1.60;;;;;;;23.54;48.29;97919.03;10361435;28;20196;-70
2023/08/15 22:52:56;;;;;;;1.65;1.38;;;;;;;23.41;48.31;97920.94;10374725;28;20551;-69
2023/08/15 22:58:18;;;;;;;9.10;1.55;;;;;;;23.25;49.00;97929.16;10374508;28;20069;-70
2023/08/15 23:03:38;;;;;;;4.38;1.30;;;;;;;23.13;49.76;97926.78;10375313;28;20128;-70
2023/08/15 23:08:59;;;;;;;4.55;1.20;;;;;;;23.07;50.18;97935.94;10374450;28;20176;-70
2023/08/15 23:14:20;;;;;;;2.17;1.15;;;;;;;22.98;50.76;97940.00;10374292;28;20189;-70
2023/08/15 23:19:41;;;;;;;4.30;1.40;;;;;;;22.88;51.36;97948.31;10373787;28;20124;-70
2023/08/15 23:25:02;;;;;;;4.60;1.52;;;;;;;22.77;51.66;97941.63;10373811;28;20049;-70
2023/08/15 23:30:23;;;;;;;3.95;1.63;;;;;;;22.69;52.20;97954.97;10374628;28;20149;-70
2023/08/15 23:35:44;;;;;;;2.15;1.63;;;;;;;22.64;52.74;97942.03;10374583;28;20130;-70
2023/08/15 23:41:05;;;;;;;3.55;1.63;;;;;;;22.57;53.44;97932.63;10373501;28;20144;-70
2023/08/15 23:46:25;;;;;;;4.75;2.00;;;;;;;22.52;54.68;97937.50;10374480;28;20168;-70
2023/08/15 23:51:47;;;;;;;3.92;2.00;;;;;;;22.50;54.37;97939.59;10359450;28;20143;-70
2023/08/15 23:57:08;;;;;;;3.40;2.40;;;;;;;22.47;55.64;97935.25;10373272;28;20069;-69
